Terminal Aerodrome Forecast
Issued by NWS Lake Charles, LA

Home | Current Version | Previous Version | Text Only | Print | Product List | Glossary On
Versions: 1 2 3 4 5 6 7 8 9 10 11 12 13 14 15 16
000
FTUS44 KLCH 011735
TAFLCH
TAF
KLCH 011735Z 0118/0218 VRB06KT P6SM VCTS SCT018CB BKN035
      TEMPO 0118/0119 BKN018CB
     FM011900 VRB06KT P6SM -RA VCTS SCT025CB BKN040
      TEMPO 0120/0123 VRB15G25KT 2SM +TSRA BKN025CB OVC035
     FM020100 00000KT P6SM FEW040 BKN150
     FM021500 VRB06KT P6SM VCSH SCT025 BKN100=

USA.gov is the U.S. government's official web portal to all federal, state and local government web resources and services.